Time;durP1;ratioP1;P1;durP2;ratioP2;P2;SDS_P1;SDS_P2;PMS_P1;PMS_P2;Temp;Humidity;BMP_temperature;BMP_pressure;BME280_temperature;BME280_humidity;BME280_pressure;Samples;Min_cycle;Max_cycle;Signal;HPM_P1;HPM_P2
2021/04/29 00:02:15;;;;;;;27.25;14.02;;;;;;;30.98;55.96;101023.69;5035822;28;65853;-36
2021/04/29 00:04:45;;;;;;;35.40;18.38;;;;;;;31.04;56.20;101032.81;5037708;28;69428;-35
2021/04/29 00:07:15;;;;;;;29.52;19.33;;;;;;;31.02;56.34;101029.47;5037347;28;66408;-36
2021/04/29 00:09:45;;;;;;;32.47;18.67;;;;;;;31.11;56.60;101049.84;5037125;28;69826;-35
2021/04/29 00:12:15;;;;;;;33.17;20.33;;;;;;;31.13;56.44;101035.03;5029698;28;65391;-35
2021/04/29 00:14:45;;;;;;;36.25;19.83;;;;;;;31.04;56.64;101022.81;5032598;28;70303;-36
2021/04/29 00:17:15;;;;;;;39.28;20.55;;;;;;;31.16;57.47;101042.72;5037048;28;65502;-36
2021/04/29 00:19:45;;;;;;;37.60;20.90;;;;;;;31.19;57.23;101046.88;5037214;28;69845;-36
2021/04/29 00:22:15;;;;;;;48.22;19.77;;;;;;;31.19;57.35;101046.03;5037205;28;66104;-34
2021/04/29 00:24:45;;;;;;;36.08;19.58;;;;;;;31.27;57.28;101054.75;5037480;28;70358;-35
2021/04/29 00:27:15;;;;;;;32.38;17.85;;;;;;;31.28;57.48;101055.56;5038482;28;66073;-35
2021/04/29 00:29:45;;;;;;;34.05;17.17;;;;;;;31.33;57.73;101069.28;5032998;28;69180;-35
2021/04/29 00:32:15;;;;;;;36.20;17.48;;;;;;;31.36;58.05;101085.16;5036651;28;65411;-35
2021/04/29 00:34:45;;;;;;;32.65;16.80;;;;;;;31.38;57.80;101083.06;5035773;28;70137;-35
2021/04/29 00:37:16;;;;;;;37.55;17.35;;;;;;;31.42;57.59;101097.81;5037279;28;66433;-36
2021/04/29 00:39:46;;;;;;;26.50;15.50;;;;;;;31.47;56.87;101095.28;5036872;28;70202;-36
2021/04/29 00:42:16;;;;;;;27.98;16.10;;;;;;;31.55;56.89;101115.88;5038234;28;65936;-34
2021/04/29 00:44:46;;;;;;;30.60;15.15;;;;;;;31.57;56.87;101114.63;5035502;28;69525;-36
2021/04/29 00:47:17;;;;;;;24.63;15.23;;;;;;;31.61;56.39;101115.00;5037539;28;65330;-34
2021/04/29 00:49:47;;;;;;;30.02;15.88;;;;;;;31.65;56.21;101115.38;5036573;28;69254;-34
2021/04/29 00:52:17;;;;;;;29.30;14.82;;;;;;;31.68;56.28;101121.22;5035663;28;65977;-34
2021/04/29 00:54:47;;;;;;;19.75;13.75;;;;;;;31.71;55.96;101119.97;5035518;28;69846;-35
2021/04/29 00:57:17;;;;;;;18.77;13.38;;;;;;;31.68;56.13;101125.78;5036909;28;65271;-35
2021/04/29 00:59:47;;;;;;;21.85;14.52;;;;;;;31.68;55.65;101128.50;5034048;28;69263;-36
2021/04/29 01:02:17;;;;;;;21.63;13.43;;;;;;;31.75;55.82;101142.88;5036542;28;65955;-52
2021/04/29 01:04:52;;;;;;;18.55;13.77;;;;;;;31.78;55.74;101147.84;5036845;28;70079;-34
2021/04/29 01:07:26;;;;;;;20.70;12.73;;;;;;;31.82;55.23;101149.09;5039890;28;66123;-34
2021/04/29 01:10:08;;;;;;;15.45;12.40;;;;;;;31.80;55.65;101152.00;5035182;28;70075;-34
2021/04/29 01:12:50;;;;;;;18.02;12.27;;;;;;;31.81;54.89;101148.22;5019836;28;66353;-33
2021/04/29 01:15:20;;;;;;;28.30;12.50;;;;;;;31.86;55.03;101150.28;5039563;28;69806;-34
2021/04/29 01:17:51;;;;;;;16.67;12.07;;;;;;;31.90;55.16;101167.81;5041059;28;66409;-34
2021/04/29 01:20:42;;;;;;;23.48;12.10;;;;;;;31.93;54.55;101167.38;5039738;28;70745;-34
2021/04/29 01:23:14;;;;;;;18.33;11.35;;;;;;;31.94;54.62;101171.75;5040623;28;66060;-35
2021/04/29 01:25:49;;;;;;;18.73;11.73;;;;;;;31.82;54.58;101149.09;5036926;28;69698;-35
2021/04/29 01:28:19;;;;;;;12.32;11.20;;;;;;;31.96;54.40;101183.22;5026279;28;66415;-34
2021/04/29 01:30:50;;;;;;;12.60;11.35;;;;;;;31.91;54.67;101168.63;5025285;28;69119;-34
2021/04/29 01:33:22;;;;;;;12.50;11.27;;;;;;;31.97;54.31;101179.44;5038136;28;66172;-33
2021/04/29 01:35:52;;;;;;;14.80;10.70;;;;;;;32.02;54.25;101186.94;5039207;28;69915;-35
2021/04/29 01:38:23;;;;;;;27.50;11.38;;;;;;;32.00;54.52;101173.56;5037287;28;66484;-34
2021/04/29 01:40:55;;;;;;;16.65;11.75;;;;;;;32.08;54.30;101179.78;5039802;28;69763;-35
2021/04/29 01:43:25;;;;;;;16.67;10.17;;;;;;;32.10;54.05;101183.13;5038035;28;66244;-34
2021/04/29 01:45:56;;;;;;;16.27;10.50;;;;;;;32.12;53.67;101183.72;5038200;28;69276;-35
2021/04/29 01:48:26;;;;;;;17.63;10.77;;;;;;;32.15;54.13;101185.97;5031772;28;66298;-34
2021/04/29 01:50:59;;;;;;;17.77;10.82;;;;;;;32.20;53.69;101183.44;5036336;28;70139;-34
2021/04/29 01:53:29;;;;;;;13.15;10.75;;;;;;;32.19;53.33;101181.78;5038249;28;65193;-34
2021/04/29 01:55:59;;;;;;;11.30;10.25;;;;;;;32.23;53.62;101178.41;5039688;28;70164;-34
2021/04/29 01:58:30;;;;;;;13.73;10.32;;;;;;;32.26;53.35;101171.69;5038800;28;66277;-34
2021/04/29 02:01:01;;;;;;;17.07;10.33;;;;;;;32.27;53.12;101179.63;5039027;28;70244;-35
2021/04/29 02:03:32;;;;;;;10.95;9.95;;;;;;;32.31;53.11;101162.88;5039489;28;66552;-34
2021/04/29 02:06:03;;;;;;;;;;;;;;;32.25;53.36;101170.03;5039552;28;69741;-34
2021/04/29 02:08:33;;;;;;;13.52;10.27;;;;;;;32.37;52.86;101162.81;5032624;28;66548;-34
2021/04/29 02:11:04;;;;;;;10.35;9.27;;;;;;;32.39;52.91;101160.69;5026672;28;70288;-34
2021/04/29 02:13:37;;;;;;;10.98;9.90;;;;;;;32.29;52.79;101144.13;5024945;28;66161;-33
2021/04/29 02:16:24;;;;;;;12.35;9.60;;;;;;;32.44;52.89;101166.28;5038902;28;69993;-33
2021/04/29 02:18:54;;;;;;;10.18;9.18;;;;;;;32.46;52.65;101156.06;5039451;28;65247;-34
2021/04/29 02:21:25;;;;;;;11.35;10.25;;;;;;;32.51;52.48;101160.00;5036218;28;69777;-34
2021/04/29 02:23:55;;;;;;;17.42;9.90;;;;;;;32.51;52.83;101158.09;5040122;28;66300;-35
2021/04/29 02:26:26;;;;;;;15.77;10.35;;;;;;;32.56;52.35;101166.41;5037760;28;72248;-34
2021/04/29 02:28:56;;;;;;;10.52;9.63;;;;;;;32.57;52.84;101161.81;5039861;28;65963;-34
2021/04/29 02:31:27;;;;;;;10.95;9.75;;;;;;;32.62;52.30;101167.38;5036778;28;70660;-35
2021/04/29 02:33:57;;;;;;;9.45;8.68;;;;;;;32.64;52.43;101157.13;5026318;28;66295;-35
2021/04/29 02:36:27;;;;;;;10.10;9.10;;;;;;;32.64;52.72;101149.00;5026141;28;70054;-35
2021/04/29 02:38:58;;;;;;;10.90;9.73;;;;;;;32.69;52.32;101147.25;5026466;28;66282;-35
2021/04/29 02:41:28;;;;;;;16.67;9.88;;;;;;;32.74;52.29;101152.03;5038351;28;69877;-34
2021/04/29 02:44:00;;;;;;;9.70;8.85;;;;;;;32.78;52.05;101147.78;5027892;28;66035;-35
2021/04/29 02:46:31;;;;;;;10.50;9.38;;;;;;;32.80;51.79;101151.09;5035833;28;69845;-35
2021/04/29 02:49:02;;;;;;;9.75;8.70;;;;;;;32.84;51.90;101148.75;5036681;28;65287;-34
2021/04/29 02:51:38;;;;;;;10.93;9.48;;;;;;;32.68;51.39;101120.31;5039005;28;70830;-34
2021/04/29 02:54:17;;;;;;;11.32;9.15;;;;;;;32.89;51.58;101144.28;5038590;28;65281;-35
2021/04/29 02:56:47;;;;;;;9.70;8.80;;;;;;;32.92;51.57;101138.41;5038444;28;69927;-37
2021/04/29 02:59:18;;;;;;;12.73;9.20;;;;;;;32.97;51.25;101140.44;5039005;28;66290;-34
2021/04/29 03:01:47;;;;;;;18.52;9.52;;;;;;;33.00;51.07;101139.19;5038017;28;69225;-34
2021/04/29 03:04:17;;;;;;;9.18;8.38;;;;;;;33.01;51.25;101140.84;5025277;28;66654;-35
2021/04/29 03:06:47;;;;;;;10.05;9.02;;;;;;;33.03;50.92;101133.31;5025497;28;70177;-34
2021/04/29 03:09:17;;;;;;;12.15;9.35;;;;;;;33.08;51.08;101136.16;5037130;28;65912;-35
2021/04/29 03:11:47;;;;;;;10.65;9.50;;;;;;;33.09;50.98;101143.25;5031709;28;69340;-35
2021/04/29 03:14:17;;;;;;;15.07;9.85;;;;;;;33.10;50.71;101128.63;5028211;28;65266;-35
2021/04/29 03:16:47;;;;;;;10.68;9.38;;;;;;;33.15;51.13;101136.88;5036490;28;69415;-34
2021/04/29 03:19:17;;;;;;;14.30;8.55;;;;;;;33.12;50.67;101121.88;5037997;28;65414;-35
2021/04/29 03:21:47;;;;;;;12.02;9.60;;;;;;;33.21;50.36;101130.56;5038523;28;69812;-35
2021/04/29 03:24:17;;;;;;;10.57;9.52;;;;;;;33.24;50.41;101131.94;5037159;28;65377;-34
2021/04/29 03:26:54;;;;;;;10.45;9.27;;;;;;;33.27;50.54;101120.66;5038132;28;70453;-35
2021/04/29 03:29:24;;;;;;;9.63;8.48;;;;;;;33.29;50.78;101126.66;5038166;28;65314;-35
2021/04/29 03:31:58;;;;;;;10.52;8.75;;;;;;;33.30;50.63;101118.28;5030306;28;70032;-35
2021/04/29 03:34:29;;;;;;;10.55;8.45;;;;;;;33.34;50.62;101119.47;5031937;28;66078;-34
2021/04/29 03:36:59;;;;;;;10.52;8.75;;;;;;;33.34;50.47;101113.22;5033657;28;69775;-35
2021/04/29 03:39:29;;;;;;;14.10;9.18;;;;;;;33.40;50.25;101114.16;5029492;28;65861;-34
2021/04/29 03:41:59;;;;;;;15.77;9.43;;;;;;;33.40;50.44;101106.00;5033789;28;69656;-34
2021/04/29 03:44:29;;;;;;;11.07;8.45;;;;;;;33.42;50.39;101107.44;5037094;28;66134;-36
2021/04/29 03:47:00;;;;;;;12.13;9.25;;;;;;;33.43;50.51;101103.66;5038138;28;69231;-35
2021/04/29 03:49:31;;;;;;;12.05;8.57;;;;;;;33.45;50.06;101098.00;5036672;28;65132;-35
2021/04/29 03:52:02;;;;;;;10.40;9.00;;;;;;;33.47;50.06;101090.44;5035749;28;71065;-36
2021/04/29 03:54:32;;;;;;;11.18;9.23;;;;;;;33.51;50.35;101099.78;5037623;28;66315;-35
2021/04/29 03:57:03;;;;;;;10.80;9.05;;;;;;;33.55;50.06;101087.41;5037796;28;69221;-36
2021/04/29 03:59:34;;;;;;;16.33;8.93;;;;;;;33.54;50.11;101086.59;5034862;28;65937;-35
2021/04/29 04:02:04;;;;;;;9.93;8.75;;;;;;;33.55;49.95;101071.09;5038172;28;69358;-35
2021/04/29 04:04:35;;;;;;;9.45;8.63;;;;;;;33.60;50.12;101082.09;5035222;28;66290;-35
2021/04/29 04:07:05;;;;;;;9.35;8.57;;;;;;;33.64;49.99;101079.72;5036725;28;70026;-36
2021/04/29 04:09:35;;;;;;;9.80;8.90;;;;;;;33.63;50.01;101069.91;5031284;28;66194;-35
2021/04/29 04:12:06;;;;;;;9.85;8.80;;;;;;;33.68;49.74;101070.03;5031018;28;69702;-35
2021/04/29 04:14:39;;;;;;;9.52;8.65;;;;;;;33.70;49.92;101068.72;5036384;28;66718;-35
2021/04/29 04:17:09;;;;;;;9.77;8.77;;;;;;;33.74;49.84;101069.06;5025992;28;70036;-34
2021/04/29 04:19:40;;;;;;;9.63;8.85;;;;;;;33.74;49.65;101058.19;5036472;28;66223;-35
2021/04/29 04:22:10;;;;;;;9.63;8.73;;;;;;;33.75;49.62;101060.69;5037472;28;69550;-35
2021/04/29 04:24:40;;;;;;;9.93;8.95;;;;;;;33.76;49.71;101048.72;5037708;28;65485;-34
2021/04/29 04:27:10;;;;;;;11.05;8.93;;;;;;;33.78;49.57;101049.34;5038292;28;69937;-35
2021/04/29 04:29:41;;;;;;;9.53;8.07;;;;;;;33.79;49.85;101045.56;5036499;28;66584;-35
2021/04/29 04:32:15;;;;;;;9.88;8.88;;;;;;;33.86;49.56;101044.63;5023445;28;69287;-35
2021/04/29 04:34:45;;;;;;;16.40;8.95;;;;;;;33.87;49.56;101038.91;5035878;28;66456;-35
2021/04/29 04:37:16;;;;;;;14.70;8.98;;;;;;;33.90;49.58;101034.91;5037536;28;70317;-37
2021/04/29 04:39:46;;;;;;;17.58;10.00;;;;;;;33.92;49.59;101021.91;5036191;28;66006;-35
2021/04/29 04:42:16;;;;;;;9.25;8.35;;;;;;;33.94;49.38;101019.78;5016531;28;69290;-36
2021/04/29 04:44:46;;;;;;;9.52;8.38;;;;;;;33.95;49.38;101010.53;5029179;28;65321;-34
2021/04/29 04:47:17;;;;;;;9.70;8.75;;;;;;;33.98;49.35;101007.31;5037561;28;69826;-35
2021/04/29 04:49:48;;;;;;;10.43;9.52;;;;;;;34.00;49.28;100997.03;5035157;28;66457;-36
2021/04/29 04:52:18;;;;;;;14.00;8.77;;;;;;;34.01;49.42;101002.22;5036057;28;69252;-35
2021/04/29 04:54:49;;;;;;;12.55;9.00;;;;;;;34.05;49.28;100990.91;5037591;28;65173;-35
2021/04/29 04:57:20;;;;;;;11.75;9.00;;;;;;;34.04;49.34;100981.88;5035742;28;68653;-36
2021/04/29 04:59:50;;;;;;;10.00;9.15;;;;;;;34.06;49.19;100977.06;5033860;28;66180;-35
2021/04/29 05:02:20;;;;;;;9.05;8.35;;;;;;;34.13;49.18;100976.91;5036880;28;69093;-35
2021/04/29 05:04:51;;;;;;;12.43;8.45;;;;;;;34.14;48.95;100971.25;5034224;28;65869;-34
2021/04/29 05:07:21;;;;;;;12.52;8.70;;;;;;;34.17;48.91;100969.94;5031780;28;69771;-35
2021/04/29 05:09:51;;;;;;;10.00;9.02;;;;;;;34.18;48.96;100960.69;5035065;28;66303;-34
2021/04/29 05:12:21;;;;;;;11.57;8.77;;;;;;;34.19;48.95;100946.03;5034919;28;70050;-35
2021/04/29 05:14:51;;;;;;;9.15;8.48;;;;;;;34.24;48.93;100949.66;5037308;28;66183;-35
2021/04/29 05:17:21;;;;;;;9.23;8.48;;;;;;;34.24;48.96;100944.22;5036001;28;68923;-35
2021/04/29 05:19:52;;;;;;;9.55;8.65;;;;;;;34.24;48.61;100944.22;5035354;28;65892;-35
2021/04/29 05:22:22;;;;;;;9.68;8.82;;;;;;;34.23;49.10;100934.38;5033861;28;68979;-37
2021/04/29 05:24:51;;;;;;;10.10;8.40;;;;;;;34.32;48.74;100928.56;5035917;28;66129;-35
2021/04/29 05:27:21;;;;;;;9.02;8.23;;;;;;;34.32;48.87;100925.84;5034855;28;69363;-35
2021/04/29 05:29:54;;;;;;;13.30;8.68;;;;;;;34.35;48.62;100928.06;5036652;28;66190;-35
2021/04/29 05:32:24;;;;;;;9.18;7.53;;;;;;;34.38;48.75;100916.69;5036773;28;70306;-34
2021/04/29 05:34:54;;;;;;;10.95;8.35;;;;;;;34.39;48.88;100910.19;5035875;28;65963;-34
2021/04/29 05:37:25;;;;;;;9.57;8.70;;;;;;;34.40;48.41;100903.66;5036556;28;70684;-34
2021/04/29 05:39:55;;;;;;;8.50;7.85;;;;;;;34.41;48.73;100899.88;5034008;28;65497;-35
2021/04/29 05:42:25;;;;;;;10.80;8.50;;;;;;;34.43;48.48;100884.09;5034916;28;70784;-35
2021/04/29 05:44:55;;;;;;;8.73;8.05;;;;;;;34.48;48.56;100889.66;5036602;28;65580;-36
2021/04/29 05:47:25;;;;;;;9.15;8.40;;;;;;;34.46;48.41;100878.16;5036174;28;69737;-35
2021/04/29 05:49:55;;;;;;;8.88;8.38;;;;;;;34.51;48.51;100872.81;5027754;28;66196;-36
2021/04/29 05:52:26;;;;;;;8.82;7.97;;;;;;;34.52;48.82;100868.19;5024183;28;70104;-34
2021/04/29 05:54:57;;;;;;;8.85;8.25;;;;;;;34.51;48.63;100872.00;5037752;28;66792;-35
2021/04/29 05:57:27;;;;;;;11.20;8.68;;;;;;;34.58;48.50;100868.09;5039153;28;69903;-34
2021/04/29 05:59:57;;;;;;;10.82;8.38;;;;;;;34.59;48.20;100856.09;5038880;28;66599;-35
2021/04/29 06:02:28;;;;;;;8.30;7.70;;;;;;;34.57;48.59;100855.50;5039508;28;70708;-35
2021/04/29 06:04:59;;;;;;;8.55;7.90;;;;;;;34.54;48.29;100842.34;5026081;28;66063;-35
2021/04/29 06:07:30;;;;;;;8.80;8.00;;;;;;;34.61;48.40;100851.25;5040459;28;69330;-35
2021/04/29 06:10:00;;;;;;;8.40;7.75;;;;;;;34.62;48.07;100839.25;5038002;28;66099;-35
2021/04/29 06:12:30;;;;;;;7.90;7.30;;;;;;;34.64;48.49;100834.41;5038015;28;69786;-35
2021/04/29 06:15:00;;;;;;;8.55;7.75;;;;;;;34.66;48.32;100826.81;5029623;28;66158;-36
2021/04/29 06:17:30;;;;;;;9.27;8.38;;;;;;;34.71;48.35;100820.59;5032887;28;69938;-36
2021/04/29 06:20:00;;;;;;;8.95;8.20;;;;;;;34.69;48.38;100815.41;5039578;28;66085;-34
2021/04/29 06:22:30;;;;;;;8.57;7.88;;;;;;;34.73;48.46;100806.75;5039583;28;69864;-35
2021/04/29 06:25:00;;;;;;;8.77;7.93;;;;;;;34.73;48.34;100809.47;5036225;28;66819;-35
2021/04/29 06:27:30;;;;;;;9.75;7.75;;;;;;;34.74;48.27;100801.03;5039605;28;69281;-35
2021/04/29 06:30:01;;;;;;;8.73;7.95;;;;;;;34.73;48.58;100798.56;5037621;28;66052;-35
2021/04/29 06:32:31;;;;;;;8.73;8.23;;;;;;;34.72;48.26;100791.47;5037020;28;69210;-35
2021/04/29 06:35:02;;;;;;;9.05;8.23;;;;;;;34.74;48.25;100795.56;5037949;28;66187;-35
2021/04/29 06:37:32;;;;;;;8.52;7.93;;;;;;;34.74;48.54;100789.31;5025224;28;70029;-35
2021/04/29 06:40:02;;;;;;;13.15;7.72;;;;;;;34.74;48.54;100790.13;5038211;28;66266;-35
2021/04/29 06:42:33;;;;;;;9.82;7.95;;;;;;;34.73;48.54;100782.22;5039290;28;69138;-36
2021/04/29 06:45:04;;;;;;;8.07;7.47;;;;;;;34.77;48.51;100777.91;5039663;28;66477;-36
2021/04/29 06:47:34;;;;;;;8.25;7.72;;;;;;;34.81;48.35;100776.34;5028650;28;69854;-36
2021/04/29 06:50:10;;;;;;;8.30;7.05;;;;;;;34.77;48.22;100767.00;5029563;28;66121;-36
2021/04/29 06:52:42;;;;;;;;;;;;;;;34.68;48.33;100772.88;5039365;28;69377;-35
2021/04/29 06:55:12;;;;;;;8.55;7.70;;;;;;;34.80;48.10;100764.63;5039430;28;65176;-35
2021/04/29 06:57:42;;;;;;;8.63;7.93;;;;;;;34.84;48.13;100768.50;5036835;28;69189;-36
2021/04/29 07:00:13;;;;;;;8.60;7.90;;;;;;;34.68;48.26;100731.19;5038524;28;66656;-36
2021/04/29 07:02:43;;;;;;;7.90;7.30;;;;;;;34.80;48.36;100755.59;5038245;28;69206;-36
2021/04/29 07:05:14;;;;;;;8.80;7.72;;;;;;;34.84;48.40;100756.78;5039395;28;65316;-36
2021/04/29 07:07:44;;;;;;;8.90;8.20;;;;;;;34.85;48.52;100752.97;5015572;28;70059;-36
2021/04/29 07:10:15;;;;;;;7.63;7.05;;;;;;;34.83;48.26;100752.41;5030237;28;65827;-35
2021/04/29 07:13:05;;;;;;;8.18;7.50;;;;;;;34.83;48.34;100744.22;5036646;28;70121;-34
2021/04/29 07:15:36;;;;;;;8.13;7.53;;;;;;;34.84;48.32;100740.41;5038617;28;67055;-35
2021/04/29 07:18:06;;;;;;;8.38;7.68;;;;;;;34.80;48.13;100733.81;5038127;28;69715;-34
2021/04/29 07:20:37;;;;;;;8.55;7.68;;;;;;;34.81;48.15;100736.28;5037276;28;65020;-35
2021/04/29 07:23:08;;;;;;;8.45;7.72;;;;;;;34.84;48.19;100729.53;5038910;28;69958;-36
2021/04/29 07:25:38;;;;;;;8.47;7.87;;;;;;;34.81;48.09;100736.28;5039008;28;65361;-35
2021/04/29 07:28:10;;;;;;;8.05;7.50;;;;;;;34.81;48.37;100730.03;5022805;28;70481;-35
2021/04/29 07:30:40;;;;;;;;;;;;;;;34.81;48.13;100730.03;5039281;28;66138;-35
2021/04/29 07:33:11;;;;;;;8.20;7.43;;;;;;;34.89;47.87;100722.25;5022636;28;70143;-34
2021/04/29 07:35:41;;;;;;;8.73;8.05;;;;;;;34.87;47.90;100707.22;5037082;28;65805;-35
2021/04/29 07:38:12;;;;;;;8.10;7.40;;;;;;;34.82;47.98;100715.31;5034926;28;69207;-35
2021/04/29 07:40:42;;;;;;;7.80;7.30;;;;;;;34.79;47.96;100711.19;5037614;28;65993;-35
2021/04/29 07:43:12;;;;;;;8.10;7.28;;;;;;;34.80;48.19;100714.72;5023520;28;70772;-35
2021/04/29 07:45:43;;;;;;;9.15;8.23;;;;;;;34.80;47.84;100707.41;5038203;28;66343;-35
2021/04/29 07:48:13;;;;;;;9.02;8.20;;;;;;;34.79;48.27;100707.66;5038238;28;69649;-35
2021/04/29 07:50:43;;;;;;;9.25;8.45;;;;;;;34.85;48.00;100703.91;5036433;28;66627;-35
2021/04/29 07:53:13;;;;;;;9.05;8.25;;;;;;;34.85;47.67;100704.75;5025004;28;69840;-35
2021/04/29 07:55:43;;;;;;;10.48;8.10;;;;;;;34.83;47.75;100696.00;5038412;28;66256;-35
2021/04/29 07:58:13;;;;;;;12.23;8.43;;;;;;;34.82;48.03;100701.69;5036412;28;69244;-35
2021/04/29 08:00:55;;;;;;;9.55;8.63;;;;;;;34.84;48.28;100691.38;5037053;28;65360;-34
2021/04/29 08:03:25;;;;;;;8.52;7.88;;;;;;;34.84;47.91;100692.19;5036043;28;70051;-35
2021/04/29 08:05:55;;;;;;;9.82;7.95;;;;;;;34.85;47.92;100688.41;5037580;28;65974;-35
2021/04/29 08:08:26;;;;;;;9.63;8.68;;;;;;;34.85;48.08;100688.41;5036295;28;69029;-35
2021/04/29 08:10:55;;;;;;;8.10;7.43;;;;;;;34.80;48.01;100684.75;5036482;28;66141;-35
2021/04/29 08:13:25;;;;;;;9.88;8.43;;;;;;;34.83;48.01;100684.28;5036219;28;70102;-35
2021/04/29 08:15:58;;;;;;;10.57;8.30;;;;;;;34.82;48.00;100683.44;5036014;28;66045;-36
2021/04/29 08:18:28;;;;;;;15.48;7.72;;;;;;;34.83;48.19;100684.28;5036258;28;69936;-35
2021/04/29 08:21:01;;;;;;;10.80;8.32;;;;;;;34.83;48.24;100685.09;5037832;28;66053;-35
2021/04/29 08:23:31;;;;;;;12.32;7.70;;;;;;;34.83;48.14;100678.84;5037072;28;69887;-35
2021/04/29 08:26:03;;;;;;;10.65;7.97;;;;;;;34.83;47.92;100678.84;5021687;28;66141;-36
2021/04/29 08:28:33;;;;;;;17.75;7.97;;;;;;;34.78;48.03;100671.41;5035359;28;69365;-36
2021/04/29 08:31:03;;;;;;;12.07;7.72;;;;;;;34.82;48.09;100666.25;5039104;28;65315;-36
2021/04/29 08:33:34;;;;;;;9.00;7.95;;;;;;;34.80;47.85;100673.84;5036496;28;70785;-38
2021/04/29 08:36:05;;;;;;;9.27;7.97;;;;;;;34.82;48.08;100671.72;5033549;28;65394;-34
2021/04/29 08:38:36;;;;;;;9.95;7.97;;;;;;;34.78;47.97;100668.69;5054600;28;70378;-34
2021/04/29 08:41:06;;;;;;;8.05;7.43;;;;;;;34.75;48.29;100671.09;5039698;28;66206;-34
2021/04/29 08:43:37;;;;;;;8.30;7.70;;;;;;;34.78;48.32;100676.03;5046549;28;69876;-34
2021/04/29 08:46:07;;;;;;;10.63;7.70;;;;;;;34.74;48.16;100663.97;5036292;28;65440;-34
2021/04/29 08:48:38;;;;;;;13.70;8.45;;;;;;;34.81;47.92;100670.06;5048251;28;69064;-34
2021/04/29 08:51:09;;;;;;;9.70;7.72;;;;;;;34.79;48.33;100672.22;5049828;28;66203;-35
2021/04/29 08:53:39;;;;;;;9.05;7.90;;;;;;;34.83;48.30;100674.19;5038354;28;69421;-35
2021/04/29 08:56:09;;;;;;;12.02;8.32;;;;;;;34.83;48.36;100673.38;5052044;28;66092;-34
2021/04/29 08:58:39;;;;;;;16.42;7.80;;;;;;;34.77;48.55;100668.91;5038662;28;69735;-36
2021/04/29 09:01:09;;;;;;;8.52;7.32;;;;;;;34.74;48.64;100670.25;5048234;28;66459;-35
2021/04/29 09:03:40;;;;;;;20.60;8.05;;;;;;;34.79;48.49;100666.78;5040035;28;69969;-35
2021/04/29 09:06:40;;;;;;;10.35;8.00;;;;;;;34.72;48.36;100672.41;5020109;28;64473;-35
2021/04/29 09:09:12;;;;;;;11.07;8.32;;;;;;;34.75;48.63;100665.66;5038162;28;70031;-35
2021/04/29 09:11:55;;;;;;;12.57;7.93;;;;;;;34.73;48.28;100667.78;5038840;28;66403;-35
2021/04/29 09:14:42;;;;;;;13.40;8.00;;;;;;;34.64;48.35;100654.59;5037322;28;69870;-35
2021/04/29 09:17:23;;;;;;;12.60;7.90;;;;;;;34.63;47.88;100658.41;5037260;28;65322;-34
2021/04/29 09:19:53;;;;;;;8.52;7.65;;;;;;;34.70;48.15;100675.38;5027563;28;69038;-34
2021/04/29 09:22:24;;;;;;;11.35;8.10;;;;;;;34.68;48.64;100672.06;5037228;28;65920;-36
2021/04/29 09:24:54;;;;;;;11.27;7.45;;;;;;;34.68;48.25;100666.63;5031915;28;70079;-35
2021/04/29 09:27:29;;;;;;;9.35;6.68;;;;;;;34.69;48.54;100673.75;5054707;28;65199;-35
2021/04/29 09:30:01;;;;;;;8.23;7.43;;;;;;;34.57;48.68;100659.38;5041030;28;69827;-35
2021/04/29 09:32:36;;;;;;;7.90;7.20;;;;;;;34.66;48.46;100674.25;5042222;28;65904;-35
2021/04/29 09:35:18;;;;;;;13.25;7.63;;;;;;;34.55;48.46;100655.22;5050344;28;69300;-35
2021/04/29 09:37:48;;;;;;;8.23;7.18;;;;;;;34.64;48.51;100675.56;5054760;28;66074;-35
2021/04/29 09:40:28;;;;;;;11.30;7.72;;;;;;;34.58;48.36;100666.50;5051113;27;69920;-35
2021/04/29 09:42:59;;;;;;;18.60;7.47;;;;;;;34.55;48.55;100656.09;5051509;28;65963;-36
2021/04/29 09:45:32;;;;;;;10.15;7.78;;;;;;;34.62;48.51;100670.34;5039399;28;70375;-35
2021/04/29 09:48:11;;;;;;;9.90;7.47;;;;;;;34.46;48.44;100649.41;5035830;28;66033;-37
2021/04/29 09:50:46;;;;;;;8.35;7.55;;;;;;;34.58;48.67;100666.50;5040876;28;69860;-36
2021/04/29 09:53:17;;;;;;;15.57;7.93;;;;;;;34.53;48.79;100666.41;5044257;28;66339;-35
2021/04/29 09:55:49;;;;;;;8.45;7.65;;;;;;;34.54;49.10;100662.59;5026592;28;69445;-36
2021/04/29 09:58:26;;;;;;;7.25;6.55;;;;;;;34.54;49.08;100676.22;5048781;28;66551;-36
2021/04/29 10:00:56;;;;;;;12.25;7.47;;;;;;;34.57;48.94;100678.47;5025688;28;69382;-35
2021/04/29 10:03:26;;;;;;;11.55;7.60;;;;;;;34.52;48.82;100689.28;5038186;28;65593;-36
2021/04/29 10:05:56;;;;;;;19.33;7.55;;;;;;;34.30;49.28;100652.97;5047530;28;69978;-35
2021/04/29 10:08:27;;;;;;;11.10;8.00;;;;;;;34.58;48.90;100699.19;5037542;28;66224;-35
2021/04/29 10:10:58;;;;;;;29.75;8.13;;;;;;;34.57;49.05;100702.97;5038013;28;69632;-35
2021/04/29 10:13:36;;;;;;;16.27;7.70;;;;;;;34.55;48.79;100705.13;5044597;28;65821;-35
2021/04/29 10:16:06;;;;;;;20.55;7.78;;;;;;;34.55;49.01;100710.56;5029386;28;69254;-35
2021/04/29 10:18:37;;;;;;;29.52;7.97;;;;;;;34.57;48.83;100702.97;5046111;28;66265;-35
2021/04/29 10:21:09;;;;;;;51.05;8.95;;;;;;;34.42;49.29;100705.44;5049453;28;70031;-36
2021/04/29 10:23:39;;;;;;;66.53;11.68;;;;;;;34.16;49.84;100686.00;5054245;28;66584;-34
2021/04/29 10:26:10;;;;;;;81.57;11.60;;;;;;;33.95;50.48;100683.97;5047396;28;69798;-36
2021/04/29 10:28:43;;;;;;;97.35;14.18;;;;;;;33.96;50.88;100702.78;5050597;28;65278;-36
2021/04/29 10:31:21;;;;;;;116.55;16.15;;;;;;;33.91;51.85;100718.19;5046628;28;69478;-35
2021/04/29 10:33:54;;;;;;;90.10;17.45;;;;;;;33.68;51.52;100700.88;5053749;28;65980;-36
2021/04/29 10:36:43;;;;;;;66.93;13.55;;;;;;;33.48;51.75;100700.47;5039858;28;70098;-36
2021/04/29 10:39:15;;;;;;;65.90;13.80;;;;;;;33.47;51.68;100728.75;5038050;28;65938;-36
2021/04/29 10:41:47;;;;;;;50.90;12.00;;;;;;;33.35;52.01;100724.19;5042397;28;69375;-36
2021/04/29 10:44:19;;;;;;;59.78;12.00;;;;;;;33.35;52.17;100723.38;5041193;28;66117;-35
2021/04/29 10:47:02;;;;;;;47.35;11.75;;;;;;;33.10;52.58;100705.44;5041768;28;67909;-36
2021/04/29 10:49:37;;;;;;;77.63;13.02;;;;;;;33.24;52.27;100722.31;5041303;28;66883;-35
2021/04/29 10:52:08;;;;;;;46.55;10.85;;;;;;;33.19;52.79;100724.94;5044483;28;69890;-37
2021/04/29 10:54:49;;;;;;;37.10;9.68;;;;;;;33.13;53.61;100739.47;5039136;28;67461;-35
2021/04/29 10:57:19;;;;;;;46.03;10.60;;;;;;;33.15;53.31;100745.47;5042364;28;69452;-35
2021/04/29 10:59:54;;;;;;;49.13;11.25;;;;;;;32.99;53.19;100733.44;5040074;28;67293;-39
2021/04/29 11:02:37;;;;;;;45.08;10.88;;;;;;;33.05;54.30;100756.16;5031707;28;69456;-37
2021/04/29 11:05:21;;;;;;;47.60;10.07;;;;;;;32.96;54.44;100746.66;5039663;28;66257;-37
2021/04/29 11:07:52;;;;;;;88.50;11.65;;;;;;;33.08;54.57;100766.53;5031842;28;69684;-36
2021/04/29 11:10:25;;;;;;;67.45;11.02;;;;;;;33.03;54.68;100769.16;5043057;28;66497;-34
2021/04/29 11:12:57;;;;;;;48.72;9.93;;;;;;;33.03;54.70;100785.44;5041114;28;70552;-35
2021/04/29 11:15:30;;;;;;;45.97;10.07;;;;;;;32.98;54.70;100788.84;5041037;28;66365;-35
2021/04/29 11:18:08;;;;;;;49.33;9.75;;;;;;;32.96;55.27;100796.41;5044692;28;69790;-35
2021/04/29 11:20:51;;;;;;;42.80;9.20;;;;;;;32.92;55.54;100796.03;5056285;28;65365;-34
2021/04/29 11:23:42;;;;;;;25.33;9.63;;;;;;;32.79;56.14;100790.00;5033383;28;70132;-36
2021/04/29 11:26:19;;;;;;;42.38;9.75;;;;;;;32.89;56.01;100799.25;5028441;28;65402;-35
2021/04/29 11:28:53;;;;;;;42.55;11.00;;;;;;;32.88;56.04;100794.06;5045899;28;70339;-34
2021/04/29 11:31:23;;;;;;;24.40;9.15;;;;;;;32.85;53.98;100795.34;5038974;28;65438;-35
2021/04/29 11:33:57;;;;;;;26.63;8.82;;;;;;;32.65;51.60;100776.69;5038057;28;69155;-36
2021/04/29 11:36:27;;;;;;;26.23;9.02;;;;;;;32.68;50.62;100805.25;5036180;28;66227;-38
2021/04/29 11:38:58;;;;;;;16.20;7.97;;;;;;;32.60;49.03;100811.03;5038848;28;69254;-36
2021/04/29 11:41:29;;;;;;;16.83;8.18;;;;;;;32.40;48.72;100809.44;5048518;28;66866;-35